sensor_id;sensor_type;location;lat;lon;timestamp;temperature;humidity
17851;DHT22;9051;51.548;14.348;2023-05-10T00:00:28;11.10;99.90
17851;DHT22;9051;51.548;14.348;2023-05-10T00:03:00;11.10;99.90
17851;DHT22;9051;51.548;14.348;2023-05-10T00:05:35;11.00;99.90
17851;DHT22;9051;51.548;14.348;2023-05-10T00:08:06;11.00;99.90
17851;DHT22;9051;51.548;14.348;2023-05-10T00:10:38;11.00;99.90
17851;DHT22;9051;51.548;14.348;2023-05-10T00:13:13;10.90;99.90
17851;DHT22;9051;51.548;14.348;2023-05-10T00:15:45;10.90;99.90
17851;DHT22;9051;51.548;14.348;2023-05-10T00:18:17;10.80;99.90
17851;DHT22;9051;51.548;14.348;2023-05-10T00:20:49;10.80;99.90
17851;DHT22;9051;51.548;14.348;2023-05-10T00:23:21;10.70;99.90
17851;DHT22;9051;51.548;14.348;2023-05-10T00:25:53;10.70;99.90
17851;DHT22;9051;51.548;14.348;2023-05-10T00:28:27;10.70;99.90
17851;DHT22;9051;51.548;14.348;2023-05-10T00:30:59;10.60;99.90
17851;DHT22;9051;51.548;14.348;2023-05-10T00:33:31;10.60;99.90
17851;DHT22;9051;51.548;14.348;2023-05-10T00:36:03;10.60;99.90
17851;DHT22;9051;51.548;14.348;2023-05-10T00:38:38;10.60;99.90
17851;DHT22;9051;51.548;14.348;2023-05-10T00:41:09;10.60;99.90
17851;DHT22;9051;51.548;14.348;2023-05-10T00:43:45;10.60;99.90
17851;DHT22;9051;51.548;14.348;2023-05-10T00:46:16;10.60;99.90
17851;DHT22;9051;51.548;14.348;2023-05-10T00:48:48;10.60;99.90
17851;DHT22;9051;51.548;14.348;2023-05-10T00:51:21;10.60;99.90
17851;DHT22;9051;51.548;14.348;2023-05-10T00:53:54;10.50;99.90
17851;DHT22;9051;51.548;14.348;2023-05-10T00:56:26;10.50;99.90
17851;DHT22;9051;51.548;14.348;2023-05-10T00:59:01;10.40;99.90
17851;DHT22;9051;51.548;14.348;2023-05-10T01:01:34;10.40;99.90
17851;DHT22;9051;51.548;14.348;2023-05-10T01:19:39;10.20;99.90
17851;DHT22;9051;51.548;14.348;2023-05-10T01:22:25;10.10;99.90
17851;DHT22;9051;51.548;14.348;2023-05-10T01:25:29;10.10;99.90
17851;DHT22;9051;51.548;14.348;2023-05-10T01:28:28;10.10;99.90
17851;DHT22;9051;51.548;14.348;2023-05-10T01:31:22;10.10;99.90
17851;DHT22;9051;51.548;14.348;2023-05-10T01:34:08;10.10;99.90
17851;DHT22;9051;51.548;14.348;2023-05-10T01:36:46;10.00;99.90
17851;DHT22;9051;51.548;14.348;2023-05-10T01:39:23;10.00;99.90
17851;DHT22;9051;51.548;14.348;2023-05-10T01:42:02;10.00;99.90
17851;DHT22;9051;51.548;14.348;2023-05-10T01:44:39;10.00;99.90
17851;DHT22;9051;51.548;14.348;2023-05-10T01:47:14;10.00;99.90
17851;DHT22;9051;51.548;14.348;2023-05-10T01:49:51;10.00;99.90
17851;DHT22;9051;51.548;14.348;2023-05-10T01:52:30;10.00;99.90
17851;DHT22;9051;51.548;14.348;2023-05-10T01:55:06;10.00;99.90
17851;DHT22;9051;51.548;14.348;2023-05-10T01:57:40;9.90;99.90
17851;DHT22;9051;51.548;14.348;2023-05-10T02:00:14;9.90;99.90
17851;DHT22;9051;51.548;14.348;2023-05-10T02:02:48;9.90;99.90
17851;DHT22;9051;51.548;14.348;2023-05-10T02:05:23;9.90;99.90
17851;DHT22;9051;51.548;14.348;2023-05-10T02:07:56;9.80;99.90
17851;DHT22;9051;51.548;14.348;2023-05-10T02:10:30;9.80;99.90
17851;DHT22;9051;51.548;14.348;2023-05-10T02:13:03;9.80;99.90
17851;DHT22;9051;51.548;14.348;2023-05-10T02:15:38;9.80;99.90
17851;DHT22;9051;51.548;14.348;2023-05-10T02:18:12;9.70;99.90
17851;DHT22;9051;51.548;14.348;2023-05-10T02:20:47;9.70;99.90
17851;DHT22;9051;51.548;14.348;2023-05-10T02:23:21;9.70;99.90
17851;DHT22;9051;51.548;14.348;2023-05-10T02:25:55;9.70;99.90
17851;DHT22;9051;51.548;14.348;2023-05-10T02:28:29;9.60;99.90
17851;DHT22;9051;51.548;14.348;2023-05-10T02:31:02;9.60;99.90
17851;DHT22;9051;51.548;14.348;2023-05-10T02:33:35;9.50;99.90
17851;DHT22;9051;51.548;14.348;2023-05-10T02:36:09;9.50;99.90
17851;DHT22;9051;51.548;14.348;2023-05-10T02:38:43;9.50;99.90
17851;DHT22;9051;51.548;14.348;2023-05-10T02:41:15;9.40;99.90
17851;DHT22;9051;51.548;14.348;2023-05-10T02:43:49;9.40;99.90
17851;DHT22;9051;51.548;14.348;2023-05-10T02:46:21;9.40;99.90
17851;DHT22;9051;51.548;14.348;2023-05-10T02:48:54;9.30;99.90
17851;DHT22;9051;51.548;14.348;2023-05-10T02:51:31;9.30;99.90
17851;DHT22;9051;51.548;14.348;2023-05-10T02:54:09;9.30;99.90
17851;DHT22;9051;51.548;14.348;2023-05-10T02:56:47;9.20;99.90
17851;DHT22;9051;51.548;14.348;2023-05-10T02:59:21;9.20;99.90
17851;DHT22;9051;51.548;14.348;2023-05-10T03:01:54;9.20;99.90
17851;DHT22;9051;51.548;14.348;2023-05-10T03:04:26;9.20;99.90
17851;DHT22;9051;51.548;14.348;2023-05-10T03:07:02;9.20;99.90
17851;DHT22;9051;51.548;14.348;2023-05-10T03:09:34;9.20;99.90
17851;DHT22;9051;51.548;14.348;2023-05-10T03:12:11;9.10;99.90
17851;DHT22;9051;51.548;14.348;2023-05-10T03:14:52;9.10;99.90
17851;DHT22;9051;51.548;14.348;2023-05-10T03:17:30;9.10;99.90
17851;DHT22;9051;51.548;14.348;2023-05-10T03:20:08;9.10;99.90
17851;DHT22;9051;51.548;14.348;2023-05-10T03:22:47;9.10;99.90
17851;DHT22;9051;51.548;14.348;2023-05-10T03:25:21;9.10;99.90
17851;DHT22;9051;51.548;14.348;2023-05-10T03:27:54;9.10;99.90
17851;DHT22;9051;51.548;14.348;2023-05-10T03:30:26;9.10;99.90
17851;DHT22;9051;51.548;14.348;2023-05-10T03:33:04;9.00;99.90
17851;DHT22;9051;51.548;14.348;2023-05-10T03:35:36;9.10;99.90
17851;DHT22;9051;51.548;14.348;2023-05-10T03:38:11;9.10;99.90
17851;DHT22;9051;51.548;14.348;2023-05-10T03:40:43;9.10;99.90
17851;DHT22;9051;51.548;14.348;2023-05-10T03:43:15;9.00;99.90
17851;DHT22;9051;51.548;14.348;2023-05-10T03:45:47;9.00;99.90
17851;DHT22;9051;51.548;14.348;2023-05-10T03:48:19;9.00;99.90
17851;DHT22;9051;51.548;14.348;2023-05-10T03:50:51;9.10;99.90
17851;DHT22;9051;51.548;14.348;2023-05-10T03:53:25;9.00;99.90
17851;DHT22;9051;51.548;14.348;2023-05-10T03:55:58;9.00;99.90
17851;DHT22;9051;51.548;14.348;2023-05-10T03:58:30;9.10;99.90
17851;DHT22;9051;51.548;14.348;2023-05-10T04:01:02;9.00;99.90
17851;DHT22;9051;51.548;14.348;2023-05-10T04:03:34;9.00;99.90
17851;DHT22;9051;51.548;14.348;2023-05-10T04:06:07;9.10;99.90
17851;DHT22;9051;51.548;14.348;2023-05-10T04:08:43;9.20;99.90
17851;DHT22;9051;51.548;14.348;2023-05-10T04:11:14;9.20;99.90
17851;DHT22;9051;51.548;14.348;2023-05-10T04:13:46;9.30;99.90
17851;DHT22;9051;51.548;14.348;2023-05-10T04:16:18;9.30;99.90
17851;DHT22;9051;51.548;14.348;2023-05-10T04:18:51;9.30;99.90
17851;DHT22;9051;51.548;14.348;2023-05-10T04:21:23;9.40;99.90
17851;DHT22;9051;51.548;14.348;2023-05-10T04:23:56;9.50;99.90
17851;DHT22;9051;51.548;14.348;2023-05-10T04:26:28;9.60;99.90
17851;DHT22;9051;51.548;14.348;2023-05-10T04:29:00;9.60;99.90
17851;DHT22;9051;51.548;14.348;2023-05-10T04:31:32;9.70;99.90
17851;DHT22;9051;51.548;14.348;2023-05-10T04:34:22;9.70;99.90
17851;DHT22;9051;51.548;14.348;2023-05-10T04:36:54;9.80;99.90
17851;DHT22;9051;51.548;14.348;2023-05-10T04:39:28;9.80;99.90
17851;DHT22;9051;51.548;14.348;2023-05-10T04:41:59;9.90;99.90
17851;DHT22;9051;51.548;14.348;2023-05-10T04:44:33;10.00;99.90
17851;DHT22;9051;51.548;14.348;2023-05-10T04:47:05;10.10;99.90
17851;DHT22;9051;51.548;14.348;2023-05-10T04:49:37;10.10;99.90
17851;DHT22;9051;51.548;14.348;2023-05-10T04:52:09;10.20;99.90
17851;DHT22;9051;51.548;14.348;2023-05-10T04:54:43;10.20;99.90
17851;DHT22;9051;51.548;14.348;2023-05-10T04:57:15;10.30;99.90
17851;DHT22;9051;51.548;14.348;2023-05-10T04:59:47;10.30;99.90
17851;DHT22;9051;51.548;14.348;2023-05-10T05:02:19;10.40;99.90
17851;DHT22;9051;51.548;14.348;2023-05-10T05:04:50;10.40;99.90
17851;DHT22;9051;51.548;14.348;2023-05-10T05:07:22;10.50;99.90
17851;DHT22;9051;51.548;14.348;2023-05-10T05:09:56;10.50;99.90
17851;DHT22;9051;51.548;14.348;2023-05-10T05:12:28;10.70;99.90
17851;DHT22;9051;51.548;14.348;2023-05-10T05:15:00;10.80;99.90
17851;DHT22;9051;51.548;14.348;2023-05-10T05:17:32;10.80;99.90
17851;DHT22;9051;51.548;14.348;2023-05-10T05:20:06;10.80;99.90
17851;DHT22;9051;51.548;14.348;2023-05-10T05:22:38;10.90;99.90
17851;DHT22;9051;51.548;14.348;2023-05-10T05:25:12;10.90;99.90
17851;DHT22;9051;51.548;14.348;2023-05-10T05:27:45;11.00;99.90
17851;DHT22;9051;51.548;14.348;2023-05-10T05:30:17;11.10;99.90
17851;DHT22;9051;51.548;14.348;2023-05-10T05:32:49;11.10;99.90
17851;DHT22;9051;51.548;14.348;2023-05-10T05:35:21;11.20;99.90
17851;DHT22;9051;51.548;14.348;2023-05-10T05:37:53;11.30;99.90
17851;DHT22;9051;51.548;14.348;2023-05-10T05:40:27;11.40;99.90
17851;DHT22;9051;51.548;14.348;2023-05-10T05:42:59;11.50;99.90
17851;DHT22;9051;51.548;14.348;2023-05-10T05:45:31;11.50;99.90
17851;DHT22;9051;51.548;14.348;2023-05-10T05:48:04;11.60;99.90
17851;DHT22;9051;51.548;14.348;2023-05-10T05:50:36;11.60;99.90
17851;DHT22;9051;51.548;14.348;2023-05-10T05:53:09;11.70;99.90
17851;DHT22;9051;51.548;14.348;2023-05-10T05:55:51;11.90;99.90
17851;DHT22;9051;51.548;14.348;2023-05-10T05:58:24;12.00;99.90
17851;DHT22;9051;51.548;14.348;2023-05-10T06:00:56;12.20;99.90
17851;DHT22;9051;51.548;14.348;2023-05-10T06:03:28;12.30;99.90
17851;DHT22;9051;51.548;14.348;2023-05-10T06:06:00;12.40;99.90
17851;DHT22;9051;51.548;14.348;2023-05-10T06:08:32;12.60;99.90
17851;DHT22;9051;51.548;14.348;2023-05-10T06:11:06;12.70;99.90
17851;DHT22;9051;51.548;14.348;2023-05-10T06:13:38;12.80;99.90
17851;DHT22;9051;51.548;14.348;2023-05-10T06:16:09;12.90;99.90
17851;DHT22;9051;51.548;14.348;2023-05-10T06:18:41;13.10;99.90
17851;DHT22;9051;51.548;14.348;2023-05-10T06:21:13;13.20;99.90
17851;DHT22;9051;51.548;14.348;2023-05-10T06:23:45;13.30;99.90
17851;DHT22;9051;51.548;14.348;2023-05-10T06:26:18;13.50;99.90
17851;DHT22;9051;51.548;14.348;2023-05-10T06:28:51;13.60;99.90
17851;DHT22;9051;51.548;14.348;2023-05-10T06:31:23;13.80;99.90
17851;DHT22;9051;51.548;14.348;2023-05-10T06:33:55;13.90;99.90
17851;DHT22;9051;51.548;14.348;2023-05-10T06:36:28;14.00;99.90
17851;DHT22;9051;51.548;14.348;2023-05-10T06:39:00;14.10;99.90
17851;DHT22;9051;51.548;14.348;2023-05-10T06:41:33;14.30;99.90
17851;DHT22;9051;51.548;14.348;2023-05-10T06:44:05;14.40;99.90
17851;DHT22;9051;51.548;14.348;2023-05-10T06:46:37;14.50;99.90
17851;DHT22;9051;51.548;14.348;2023-05-10T06:49:09;14.60;99.90
17851;DHT22;9051;51.548;14.348;2023-05-10T06:51:41;14.70;99.90
17851;DHT22;9051;51.548;14.348;2023-05-10T06:54:13;14.80;99.90
17851;DHT22;9051;51.548;14.348;2023-05-10T06:56:47;14.90;99.90
17851;DHT22;9051;51.548;14.348;2023-05-10T06:59:19;15.00;99.90
17851;DHT22;9051;51.548;14.348;2023-05-10T07:01:52;15.10;99.90
17851;DHT22;9051;51.548;14.348;2023-05-10T07:04:24;15.40;99.90
17851;DHT22;9051;51.548;14.348;2023-05-10T07:06:56;15.40;99.90
17851;DHT22;9051;51.548;14.348;2023-05-10T07:09:28;15.50;99.90
17851;DHT22;9051;51.548;14.348;2023-05-10T07:12:03;15.70;99.90
17851;DHT22;9051;51.548;14.348;2023-05-10T07:14:35;15.80;99.90
17851;DHT22;9051;51.548;14.348;2023-05-10T07:17:07;15.90;99.90
17851;DHT22;9051;51.548;14.348;2023-05-10T07:19:39;16.00;99.90
17851;DHT22;9051;51.548;14.348;2023-05-10T07:22:11;16.10;99.90
17851;DHT22;9051;51.548;14.348;2023-05-10T07:24:44;16.20;99.90
17851;DHT22;9051;51.548;14.348;2023-05-10T07:27:18;16.20;99.90
17851;DHT22;9051;51.548;14.348;2023-05-10T07:29:49;16.30;99.90
17851;DHT22;9051;51.548;14.348;2023-05-10T07:32:21;16.40;99.90
17851;DHT22;9051;51.548;14.348;2023-05-10T07:34:53;16.60;99.90
17851;DHT22;9051;51.548;14.348;2023-05-10T07:37:25;16.60;99.90
17851;DHT22;9051;51.548;14.348;2023-05-10T07:39:57;16.80;99.90
17851;DHT22;9051;51.548;14.348;2023-05-10T07:42:30;16.80;99.90
17851;DHT22;9051;51.548;14.348;2023-05-10T07:45:02;16.90;99.90
17851;DHT22;9051;51.548;14.348;2023-05-10T07:47:35;17.00;99.90
17851;DHT22;9051;51.548;14.348;2023-05-10T07:50:08;17.00;99.90
17851;DHT22;9051;51.548;14.348;2023-05-10T07:52:40;17.10;99.90
17851;DHT22;9051;51.548;14.348;2023-05-10T07:55:12;17.20;99.90
17851;DHT22;9051;51.548;14.348;2023-05-10T07:57:45;17.30;99.90
17851;DHT22;9051;51.548;14.348;2023-05-10T08:00:18;17.40;99.90
17851;DHT22;9051;51.548;14.348;2023-05-10T08:02:50;17.50;99.90
17851;DHT22;9051;51.548;14.348;2023-05-10T08:05:23;17.60;99.90
17851;DHT22;9051;51.548;14.348;2023-05-10T08:07:55;17.60;99.90
17851;DHT22;9051;51.548;14.348;2023-05-10T08:10:27;17.70;99.90
17851;DHT22;9051;51.548;14.348;2023-05-10T08:13:00;17.70;99.90
17851;DHT22;9051;51.548;14.348;2023-05-10T08:15:32;17.80;99.90
17851;DHT22;9051;51.548;14.348;2023-05-10T08:18:04;17.90;99.90
17851;DHT22;9051;51.548;14.348;2023-05-10T08:20:35;17.90;99.90
17851;DHT22;9051;51.548;14.348;2023-05-10T08:23:07;18.00;99.90
17851;DHT22;9051;51.548;14.348;2023-05-10T08:25:39;18.10;99.90
17851;DHT22;9051;51.548;14.348;2023-05-10T08:28:12;18.30;99.90
17851;DHT22;9051;51.548;14.348;2023-05-10T08:30:44;18.30;99.90
17851;DHT22;9051;51.548;14.348;2023-05-10T08:33:17;18.40;99.90
17851;DHT22;9051;51.548;14.348;2023-05-10T08:35:49;18.50;99.90
17851;DHT22;9051;51.548;14.348;2023-05-10T08:38:21;18.60;99.90
17851;DHT22;9051;51.548;14.348;2023-05-10T08:40:54;18.70;99.90
17851;DHT22;9051;51.548;14.348;2023-05-10T08:43:30;18.80;99.90
17851;DHT22;9051;51.548;14.348;2023-05-10T08:46:04;18.90;99.90
17851;DHT22;9051;51.548;14.348;2023-05-10T08:48:37;18.90;99.90
17851;DHT22;9051;51.548;14.348;2023-05-10T08:51:12;19.10;99.90
17851;DHT22;9051;51.548;14.348;2023-05-10T08:53:45;19.20;99.90
17851;DHT22;9051;51.548;14.348;2023-05-10T08:56:17;19.30;99.90
17851;DHT22;9051;51.548;14.348;2023-05-10T08:58:51;19.40;99.90
17851;DHT22;9051;51.548;14.348;2023-05-10T09:01:24;19.50;99.90
17851;DHT22;9051;51.548;14.348;2023-05-10T09:03:57;19.50;99.90
17851;DHT22;9051;51.548;14.348;2023-05-10T09:06:29;19.50;99.90
17851;DHT22;9051;51.548;14.348;2023-05-10T09:09:02;19.50;99.90
17851;DHT22;9051;51.548;14.348;2023-05-10T09:11:34;19.60;99.90
17851;DHT22;9051;51.548;14.348;2023-05-10T09:14:08;19.60;99.90
17851;DHT22;9051;51.548;14.348;2023-05-10T09:16:41;19.70;99.90
17851;DHT22;9051;51.548;14.348;2023-05-10T09:19:12;19.80;99.90
17851;DHT22;9051;51.548;14.348;2023-05-10T09:21:45;19.80;99.90
17851;DHT22;9051;51.548;14.348;2023-05-10T09:24:17;19.80;99.90
17851;DHT22;9051;51.548;14.348;2023-05-10T09:26:49;19.90;99.90
17851;DHT22;9051;51.548;14.348;2023-05-10T09:29:22;19.90;99.90
17851;DHT22;9051;51.548;14.348;2023-05-10T09:31:54;20.00;99.90
17851;DHT22;9051;51.548;14.348;2023-05-10T09:34:29;20.10;99.90
17851;DHT22;9051;51.548;14.348;2023-05-10T09:37:02;20.10;99.90
17851;DHT22;9051;51.548;14.348;2023-05-10T09:39:36;20.20;99.90
17851;DHT22;9051;51.548;14.348;2023-05-10T09:42:09;20.20;99.90
17851;DHT22;9051;51.548;14.348;2023-05-10T09:44:42;20.30;99.90
17851;DHT22;9051;51.548;14.348;2023-05-10T09:47:17;20.30;99.90
17851;DHT22;9051;51.548;14.348;2023-05-10T09:49:49;20.40;99.90
17851;DHT22;9051;51.548;14.348;2023-05-10T09:52:21;20.50;99.90
17851;DHT22;9051;51.548;14.348;2023-05-10T09:54:54;20.60;99.90
17851;DHT22;9051;51.548;14.348;2023-05-10T09:57:26;20.70;99.90
17851;DHT22;9051;51.548;14.348;2023-05-10T10:00:01;20.80;99.90
17851;DHT22;9051;51.548;14.348;2023-05-10T10:02:45;20.90;99.90
17851;DHT22;9051;51.548;14.348;2023-05-10T10:05:17;20.90;99.90
17851;DHT22;9051;51.548;14.348;2023-05-10T10:07:49;21.00;99.90
17851;DHT22;9051;51.548;14.348;2023-05-10T10:10:22;21.00;99.90
17851;DHT22;9051;51.548;14.348;2023-05-10T10:12:55;21.20;99.90
17851;DHT22;9051;51.548;14.348;2023-05-10T10:15:28;21.30;99.90
17851;DHT22;9051;51.548;14.348;2023-05-10T10:18:01;21.40;99.90
17851;DHT22;9051;51.548;14.348;2023-05-10T10:20:35;21.40;99.90
17851;DHT22;9051;51.548;14.348;2023-05-10T10:23:08;21.50;99.90
17851;DHT22;9051;51.548;14.348;2023-05-10T10:25:40;21.50;99.90
17851;DHT22;9051;51.548;14.348;2023-05-10T10:28:22;21.50;99.90
17851;DHT22;9051;51.548;14.348;2023-05-10T10:31:00;21.60;99.90
17851;DHT22;9051;51.548;14.348;2023-05-10T10:33:40;21.70;99.90
17851;DHT22;9051;51.548;14.348;2023-05-10T10:36:21;21.70;99.90
17851;DHT22;9051;51.548;14.348;2023-05-10T10:39:00;21.70;99.90
17851;DHT22;9051;51.548;14.348;2023-05-10T10:41:35;21.80;99.90
17851;DHT22;9051;51.548;14.348;2023-05-10T10:44:33;21.80;99.90
17851;DHT22;9051;51.548;14.348;2023-05-10T10:47:10;21.90;99.90
17851;DHT22;9051;51.548;14.348;2023-05-10T10:50:04;22.00;99.90
17851;DHT22;9051;51.548;14.348;2023-05-10T10:52:37;22.00;99.90
17851;DHT22;9051;51.548;14.348;2023-05-10T10:55:10;22.10;99.90
17851;DHT22;9051;51.548;14.348;2023-05-10T10:57:45;22.20;99.90
17851;DHT22;9051;51.548;14.348;2023-05-10T11:00:28;22.20;99.90
17851;DHT22;9051;51.548;14.348;2023-05-10T11:03:05;22.20;99.90
17851;DHT22;9051;51.548;14.348;2023-05-10T11:05:41;22.20;99.90
17851;DHT22;9051;51.548;14.348;2023-05-10T11:08:20;22.20;99.90
17851;DHT22;9051;51.548;14.348;2023-05-10T11:11:05;22.20;99.90
17851;DHT22;9051;51.548;14.348;2023-05-10T11:13:39;22.20;99.90
17851;DHT22;9051;51.548;14.348;2023-05-10T11:16:16;22.20;99.90
17851;DHT22;9051;51.548;14.348;2023-05-10T11:18:56;22.30;99.90
17851;DHT22;9051;51.548;14.348;2023-05-10T11:21:29;22.30;99.90
17851;DHT22;9051;51.548;14.348;2023-05-10T11:24:02;22.40;99.90
17851;DHT22;9051;51.548;14.348;2023-05-10T11:26:44;22.40;99.90
17851;DHT22;9051;51.548;14.348;2023-05-10T11:29:16;22.50;99.90
17851;DHT22;9051;51.548;14.348;2023-05-10T11:31:48;22.60;99.90
17851;DHT22;9051;51.548;14.348;2023-05-10T11:34:25;22.60;99.90
17851;DHT22;9051;51.548;14.348;2023-05-10T11:36:58;22.60;99.90
17851;DHT22;9051;51.548;14.348;2023-05-10T11:39:31;22.70;99.90
17851;DHT22;9051;51.548;14.348;2023-05-10T11:42:04;22.80;99.90
17851;DHT22;9051;51.548;14.348;2023-05-10T11:44:35;22.90;99.90
17851;DHT22;9051;51.548;14.348;2023-05-10T11:47:07;22.90;99.90
17851;DHT22;9051;51.548;14.348;2023-05-10T11:49:43;22.90;99.90
17851;DHT22;9051;51.548;14.348;2023-05-10T11:52:19;23.00;99.90
17851;DHT22;9051;51.548;14.348;2023-05-10T11:54:51;23.10;99.90
17851;DHT22;9051;51.548;14.348;2023-05-10T11:57:26;23.10;99.90
17851;DHT22;9051;51.548;14.348;2023-05-10T11:59:59;23.20;99.90
17851;DHT22;9051;51.548;14.348;2023-05-10T12:02:31;23.30;99.90
17851;DHT22;9051;51.548;14.348;2023-05-10T12:05:05;23.30;99.90
17851;DHT22;9051;51.548;14.348;2023-05-10T12:07:38;23.30;99.90
17851;DHT22;9051;51.548;14.348;2023-05-10T12:10:12;23.40;99.90
17851;DHT22;9051;51.548;14.348;2023-05-10T12:12:46;23.50;99.90
17851;DHT22;9051;51.548;14.348;2023-05-10T12:15:20;23.30;99.90
17851;DHT22;9051;51.548;14.348;2023-05-10T12:17:52;23.30;99.90
17851;DHT22;9051;51.548;14.348;2023-05-10T12:20:27;23.40;99.90
17851;DHT22;9051;51.548;14.348;2023-05-10T12:22:59;23.60;99.90
17851;DHT22;9051;51.548;14.348;2023-05-10T12:25:34;23.70;99.90
17851;DHT22;9051;51.548;14.348;2023-05-10T12:28:08;23.80;99.90
17851;DHT22;9051;51.548;14.348;2023-05-10T12:30:40;23.90;99.90
17851;DHT22;9051;51.548;14.348;2023-05-10T12:33:13;23.90;99.90
17851;DHT22;9051;51.548;14.348;2023-05-10T12:35:49;24.00;99.90
17851;DHT22;9051;51.548;14.348;2023-05-10T12:38:26;24.00;99.90
17851;DHT22;9051;51.548;14.348;2023-05-10T12:41:01;24.00;99.90
17851;DHT22;9051;51.548;14.348;2023-05-10T12:43:34;24.10;99.90
17851;DHT22;9051;51.548;14.348;2023-05-10T12:46:07;24.30;99.90
17851;DHT22;9051;51.548;14.348;2023-05-10T12:48:40;24.30;99.90
17851;DHT22;9051;51.548;14.348;2023-05-10T12:51:13;24.50;99.90
17851;DHT22;9051;51.548;14.348;2023-05-10T12:53:47;24.50;99.90
17851;DHT22;9051;51.548;14.348;2023-05-10T12:56:19;24.50;99.90
17851;DHT22;9051;51.548;14.348;2023-05-10T12:58:51;24.50;99.90
17851;DHT22;9051;51.548;14.348;2023-05-10T13:01:23;24.60;99.90
17851;DHT22;9051;51.548;14.348;2023-05-10T13:03:55;24.70;99.90
17851;DHT22;9051;51.548;14.348;2023-05-10T13:06:28;24.80;99.90
17851;DHT22;9051;51.548;14.348;2023-05-10T13:09:01;24.90;99.90
17851;DHT22;9051;51.548;14.348;2023-05-10T13:11:33;24.90;99.90
17851;DHT22;9051;51.548;14.348;2023-05-10T13:14:05;25.00;99.90
17851;DHT22;9051;51.548;14.348;2023-05-10T13:16:36;24.90;99.90
17851;DHT22;9051;51.548;14.348;2023-05-10T13:19:08;25.00;99.90
17851;DHT22;9051;51.548;14.348;2023-05-10T13:21:43;25.10;99.90
17851;DHT22;9051;51.548;14.348;2023-05-10T13:24:15;25.20;99.90
17851;DHT22;9051;51.548;14.348;2023-05-10T13:26:48;25.10;99.90
17851;DHT22;9051;51.548;14.348;2023-05-10T13:29:20;25.30;99.90
17851;DHT22;9051;51.548;14.348;2023-05-10T13:31:53;25.40;99.90
17851;DHT22;9051;51.548;14.348;2023-05-10T13:34:25;25.20;99.90
17851;DHT22;9051;51.548;14.348;2023-05-10T13:36:58;25.20;99.90
17851;DHT22;9051;51.548;14.348;2023-05-10T13:39:30;25.30;99.90
17851;DHT22;9051;51.548;14.348;2023-05-10T13:42:05;25.60;99.90
17851;DHT22;9051;51.548;14.348;2023-05-10T13:44:37;25.60;99.90
17851;DHT22;9051;51.548;14.348;2023-05-10T13:47:09;25.70;99.90
17851;DHT22;9051;51.548;14.348;2023-05-10T13:49:41;25.90;99.90
17851;DHT22;9051;51.548;14.348;2023-05-10T13:52:15;25.90;99.90
17851;DHT22;9051;51.548;14.348;2023-05-10T13:54:46;25.70;99.90
17851;DHT22;9051;51.548;14.348;2023-05-10T13:57:18;25.70;99.90
17851;DHT22;9051;51.548;14.348;2023-05-10T13:59:51;25.80;99.90
17851;DHT22;9051;51.548;14.348;2023-05-10T14:02:23;25.70;99.90
17851;DHT22;9051;51.548;14.348;2023-05-10T14:04:55;25.50;99.90
17851;DHT22;9051;51.548;14.348;2023-05-10T14:07:28;25.70;99.90
17851;DHT22;9051;51.548;14.348;2023-05-10T14:10:00;25.80;99.90
17851;DHT22;9051;51.548;14.348;2023-05-10T14:12:32;25.70;99.90
17851;DHT22;9051;51.548;14.348;2023-05-10T14:15:04;25.70;99.90
17851;DHT22;9051;51.548;14.348;2023-05-10T14:17:37;25.70;99.90
17851;DHT22;9051;51.548;14.348;2023-05-10T14:20:10;25.70;99.90
17851;DHT22;9051;51.548;14.348;2023-05-10T14:22:43;25.50;99.90
17851;DHT22;9051;51.548;14.348;2023-05-10T14:25:15;25.50;99.90
17851;DHT22;9051;51.548;14.348;2023-05-10T14:27:47;25.60;99.90
17851;DHT22;9051;51.548;14.348;2023-05-10T14:30:19;25.80;99.90
17851;DHT22;9051;51.548;14.348;2023-05-10T14:32:51;25.90;99.90
17851;DHT22;9051;51.548;14.348;2023-05-10T14:35:49;25.80;99.90
17851;DHT22;9051;51.548;14.348;2023-05-10T14:50:24;25.80;99.90
17851;DHT22;9051;51.548;14.348;2023-05-10T14:57:35;25.70;99.90
17851;DHT22;9051;51.548;14.348;2023-05-10T15:00:28;25.10;99.90
17851;DHT22;9051;51.548;14.348;2023-05-10T15:03:05;25.00;99.90
17851;DHT22;9051;51.548;14.348;2023-05-10T15:06:30;24.90;99.90
17851;DHT22;9051;51.548;14.348;2023-05-10T15:09:07;24.90;99.90
17851;DHT22;9051;51.548;14.348;2023-05-10T15:12:29;24.90;99.90
17851;DHT22;9051;51.548;14.348;2023-05-10T15:20:02;24.40;99.90
17851;DHT22;9051;51.548;14.348;2023-05-10T15:22:44;24.10;99.90
17851;DHT22;9051;51.548;14.348;2023-05-10T15:29:00;23.90;99.90
17851;DHT22;9051;51.548;14.348;2023-05-10T15:31:54;24.00;99.90
17851;DHT22;9051;51.548;14.348;2023-05-10T15:34:29;23.90;99.90
17851;DHT22;9051;51.548;14.348;2023-05-10T15:37:09;24.00;99.90
17851;DHT22;9051;51.548;14.348;2023-05-10T15:39:45;24.00;99.90
17851;DHT22;9051;51.548;14.348;2023-05-10T15:42:20;24.00;99.90
17851;DHT22;9051;51.548;14.348;2023-05-10T15:45:08;24.10;99.90
17851;DHT22;9051;51.548;14.348;2023-05-10T15:47:52;24.30;99.90
17851;DHT22;9051;51.548;14.348;2023-05-10T15:51:04;24.30;99.90
17851;DHT22;9051;51.548;14.348;2023-05-10T15:53:54;24.30;99.90
17851;DHT22;9051;51.548;14.348;2023-05-10T15:56:36;24.30;99.90
17851;DHT22;9051;51.548;14.348;2023-05-10T15:59:09;24.20;99.90
17851;DHT22;9051;51.548;14.348;2023-05-10T16:01:47;24.20;99.90
17851;DHT22;9051;51.548;14.348;2023-05-10T16:04:31;24.00;99.90
17851;DHT22;9051;51.548;14.348;2023-05-10T16:07:11;24.00;99.90
17851;DHT22;9051;51.548;14.348;2023-05-10T16:09:43;24.00;99.90
17851;DHT22;9051;51.548;14.348;2023-05-10T16:12:29;24.00;99.90
17851;DHT22;9051;51.548;14.348;2023-05-10T16:15:19;23.90;99.90
17851;DHT22;9051;51.548;14.348;2023-05-10T16:18:32;23.90;99.90
17851;DHT22;9051;51.548;14.348;2023-05-10T16:21:19;23.80;99.90
17851;DHT22;9051;51.548;14.348;2023-05-10T16:24:02;23.90;99.90
17851;DHT22;9051;51.548;14.348;2023-05-10T16:26:49;23.80;99.90
17851;DHT22;9051;51.548;14.348;2023-05-10T16:30:07;23.70;99.90
17851;DHT22;9051;51.548;14.348;2023-05-10T16:33:09;23.50;99.90
17851;DHT22;9051;51.548;14.348;2023-05-10T16:36:10;23.10;99.90
17851;DHT22;9051;51.548;14.348;2023-05-10T16:38:53;23.00;99.90
17851;DHT22;9051;51.548;14.348;2023-05-10T16:41:36;22.90;99.90
17851;DHT22;9051;51.548;14.348;2023-05-10T16:44:19;22.80;99.90
17851;DHT22;9051;51.548;14.348;2023-05-10T16:46:52;22.60;99.90
17851;DHT22;9051;51.548;14.348;2023-05-10T16:49:24;22.40;99.90
17851;DHT22;9051;51.548;14.348;2023-05-10T16:51:56;22.30;99.90
17851;DHT22;9051;51.548;14.348;2023-05-10T16:54:29;22.10;99.90
17851;DHT22;9051;51.548;14.348;2023-05-10T16:57:02;22.00;99.90
17851;DHT22;9051;51.548;14.348;2023-05-10T16:59:34;21.90;99.90
17851;DHT22;9051;51.548;14.348;2023-05-10T17:02:07;21.70;99.90